Time;durP1;ratioP1;P1;durP2;ratioP2;P2;SDS_P1;SDS_P2;PMS_P1;PMS_P2;Temp;Humidity;BMP_temperature;BMP_pressure;BME280_temperature;BME280_humidity;BME280_pressure;Samples;Min_cycle;Max_cycle;Signal;HPM_P1;HPM_P2
2023/12/15 00:01:34;;;;;;;0.70;0.70;;;;;3.60;96955.00;;;;5072440;28;20211;-62
2023/12/15 00:04:02;;;;;;;0.60;0.60;;;;;3.60;96946.00;;;;5072541;28;20266;-62
2023/12/15 00:06:30;;;;;;;0.60;0.60;;;;;3.50;96957.00;;;;5072605;28;20632;-62
2023/12/15 00:08:58;;;;;;;0.70;0.70;;;;;3.40;96956.00;;;;5073430;28;20223;-62
2023/12/15 00:11:25;;;;;;;0.67;0.67;;;;;3.50;96962.00;;;;5076092;28;20188;-62
2023/12/15 00:13:53;;;;;;;1.13;1.03;;;;;3.30;96954.00;;;;5076424;28;20192;-62
2023/12/15 00:16:20;;;;;;;0.83;0.83;;;;;3.50;96956.00;;;;5075998;28;20188;-62
2023/12/15 00:18:48;;;;;;;1.33;1.27;;;;;3.40;96958.00;;;;5076123;28;20233;-62
2023/12/15 00:21:15;;;;;;;0.93;0.93;;;;;3.30;96967.00;;;;5075786;28;20202;-62
2023/12/15 00:23:44;;;;;;;1.13;1.10;;;;;3.30;96971.00;;;;5075798;28;20196;-62
2023/12/15 00:26:11;;;;;;;0.70;0.70;;;;;3.30;96968.00;;;;5075825;28;20187;-62
2023/12/15 00:28:38;;;;;;;1.47;1.40;;;;;3.40;96962.00;;;;5075665;28;20220;-62
2023/12/15 00:31:06;;;;;;;1.73;0.83;;;;;3.60;96968.00;;;;5075706;28;20191;-62
2023/12/15 00:33:34;;;;;;;0.60;0.60;;;;;3.60;96975.00;;;;5076155;28;20203;-62
2023/12/15 00:36:03;;;;;;;0.70;0.70;;;;;3.60;96985.00;;;;5075632;28;20193;-62
2023/12/15 00:38:31;;;;;;;1.43;1.33;;;;;3.80;96987.00;;;;5075777;28;20195;-62
2023/12/15 00:40:59;;;;;;;0.67;0.67;;;;;3.60;96991.00;;;;5075626;28;20198;-62
2023/12/15 00:43:27;;;;;;;1.03;1.03;;;;;3.50;96986.00;;;;5075470;28;20215;-62
2023/12/15 00:45:54;;;;;;;1.37;0.90;;;;;3.40;96988.00;;;;5075386;28;20282;-62
2023/12/15 00:48:22;;;;;;;0.73;0.73;;;;;3.50;96989.00;;;;5075266;28;20238;-62
2023/12/15 00:50:50;;;;;;;1.10;1.03;;;;;3.40;97000.00;;;;5075886;28;20195;-62
2023/12/15 00:53:17;;;;;;;0.90;0.90;;;;;3.30;96996.00;;;;5074063;28;20215;-62
2023/12/15 00:55:44;;;;;;;1.20;1.03;;;;;3.20;97004.00;;;;5076081;28;20578;-63
2023/12/15 00:58:14;;;;;;;1.27;1.10;;;;;3.30;97000.00;;;;5075149;28;20192;-62
2023/12/15 01:00:41;;;;;;;1.00;1.00;;;;;3.30;97006.00;;;;5075142;28;20611;-62
2023/12/15 01:03:09;;;;;;;0.87;0.87;;;;;3.30;97009.00;;;;5075262;28;20679;-62
2023/12/15 01:05:36;;;;;;;1.40;1.37;;;;;3.30;97011.00;;;;5074930;28;20192;-62
2023/12/15 01:08:04;;;;;;;1.00;1.00;;;;;3.40;97012.00;;;;5074927;28;20204;-62
2023/12/15 01:10:31;;;;;;;1.00;1.00;;;;;3.40;97019.00;;;;5074951;28;20191;-62
2023/12/15 01:12:58;;;;;;;1.20;1.10;;;;;3.30;97024.00;;;;5074965;28;20207;-62
2023/12/15 01:15:27;;;;;;;1.63;1.53;;;;;3.50;97030.00;;;;5073820;28;20200;-62
2023/12/15 01:17:55;;;;;;;0.80;0.80;;;;;3.50;97034.00;;;;5075303;28;20187;-62
2023/12/15 01:20:22;;;;;;;1.07;1.07;;;;;3.50;97034.00;;;;5073589;28;20681;-62
2023/12/15 01:22:50;;;;;;;1.50;1.20;;;;;3.30;97042.00;;;;5074573;28;20215;-62
2023/12/15 01:25:17;;;;;;;0.80;0.80;;;;;3.20;97040.00;;;;5074585;28;20199;-62
2023/12/15 01:27:45;;;;;;;1.57;1.47;;;;;3.30;97059.00;;;;5074514;28;20227;-62
2023/12/15 01:30:12;;;;;;;0.80;0.80;;;;;3.20;97063.00;;;;5075710;28;20215;-62
2023/12/15 01:32:41;;;;;;;0.80;0.80;;;;;3.20;97063.00;;;;5074419;28;20222;-62
2023/12/15 01:35:09;;;;;;;0.87;0.87;;;;;3.20;97071.00;;;;5074706;28;20194;-62
2023/12/15 01:37:36;;;;;;;2.83;1.93;;;;;3.20;97062.00;;;;5074376;28;20195;-62
2023/12/15 01:40:04;;;;;;;1.83;1.73;;;;;3.20;97076.00;;;;5074192;28;20568;-62
2023/12/15 01:42:32;;;;;;;1.13;1.13;;;;;3.20;97077.00;;;;5074284;28;20217;-62
2023/12/15 01:44:59;;;;;;;1.17;1.17;;;;;3.40;97067.00;;;;5074316;28;20563;-62
2023/12/15 01:47:27;;;;;;;1.90;1.33;;;;;3.30;97077.00;;;;5074199;28;20192;-62
2023/12/15 01:49:56;;;;;;;1.50;1.40;;;;;3.10;97074.00;;;;5074259;28;20188;-62
2023/12/15 01:52:23;;;;;;;1.50;1.40;;;;;3.10;97076.00;;;;5074380;28;20210;-62
2023/12/15 01:54:51;;;;;;;1.27;1.27;;;;;3.10;97071.00;;;;5074098;28;20192;-62
2023/12/15 01:57:18;;;;;;;1.47;1.43;;;;;3.20;97077.00;;;;5073949;28;20191;-62
2023/12/15 01:59:47;;;;;;;1.57;1.47;;;;;3.30;97075.00;;;;5074063;28;20199;-62
2023/12/15 02:02:14;;;;;;;1.80;1.70;;;;;3.30;97073.00;;;;5073922;28;20284;-62
2023/12/15 02:04:42;;;;;;;0.77;0.77;;;;;3.50;97075.00;;;;5074017;28;20202;-62
2023/12/15 02:07:11;;;;;;;1.57;1.47;;;;;3.40;97071.00;;;;5074154;28;20203;-62
2023/12/15 02:09:39;;;;;;;2.40;1.73;;;;;3.40;97076.00;;;;5073880;28;20211;-62
2023/12/15 02:12:07;;;;;;;0.77;0.77;;;;;3.50;97079.00;;;;5074048;28;20305;-62
2023/12/15 02:14:35;;;;;;;1.50;1.40;;;;;3.40;97091.00;;;;5073878;28;20187;-62
2023/12/15 02:17:02;;;;;;;1.33;1.30;;;;;3.30;97095.00;;;;5074015;28;20203;-62
2023/12/15 02:19:30;;;;;;;1.10;1.10;;;;;3.30;97095.00;;;;5073676;28;20262;-62
2023/12/15 02:21:57;;;;;;;1.27;1.17;;;;;3.20;97105.00;;;;5073593;28;20222;-62
2023/12/15 02:24:26;;;;;;;1.03;1.03;;;;;2.90;97107.00;;;;5073808;28;20550;-62
2023/12/15 02:26:53;;;;;;;1.73;1.60;;;;;2.90;97119.00;;;;5074022;28;20200;-62
2023/12/15 02:29:21;;;;;;;1.30;1.30;;;;;3.00;97104.00;;;;5073368;28;20216;-62
2023/12/15 02:31:48;;;;;;;1.07;1.07;;;;;3.00;97106.00;;;;5073523;28;20706;-61
2023/12/15 02:34:15;;;;;;;1.00;1.00;;;;;3.00;97122.00;;;;5073528;28;20191;-61
2023/12/15 02:36:43;;;;;;;1.00;1.00;;;;;3.10;97125.00;;;;5073507;28;20196;-61
2023/12/15 02:39:10;;;;;;;2.77;1.60;;;;;3.00;97129.00;;;;5073770;28;20191;-62
2023/12/15 02:41:39;;;;;;;0.90;0.90;;;;;2.90;97129.00;;;;5073323;28;20583;-62
2023/12/15 02:44:06;;;;;;;0.77;0.77;;;;;2.90;97130.00;;;;5073319;28;20257;-62
2023/12/15 02:46:39;;;;;;;0.90;0.90;;;;;2.90;97140.00;;;;5073279;28;20200;-62
2023/12/15 02:49:07;;;;;;;0.80;0.80;;;;;3.00;97128.00;;;;5073420;28;20244;-62
2023/12/15 02:51:34;;;;;;;1.47;1.37;;;;;3.20;97138.00;;;;5073364;28;20571;-62
2023/12/15 02:54:02;;;;;;;0.63;0.63;;;;;3.20;97140.00;;;;5073217;28;20203;-62
2023/12/15 02:56:30;;;;;;;1.90;1.67;;;;;3.20;97147.00;;;;5073267;28;20195;-62
2023/12/15 02:58:58;;;;;;;1.83;1.70;;;;;3.10;97140.00;;;;5073256;28;20187;-61
2023/12/15 03:01:26;;;;;;;1.43;1.43;;;;;3.10;97146.00;;;;5073026;28;20194;-61
2023/12/15 03:03:53;;;;;;;1.13;1.10;;;;;3.10;97147.00;;;;5073112;28;20199;-61
2023/12/15 03:06:21;;;;;;;1.40;1.30;;;;;3.10;97156.00;;;;5073133;28;20621;-61
2023/12/15 03:08:48;;;;;;;2.33;1.90;;;;;3.20;97158.00;;;;5073482;28;20686;-61
2023/12/15 03:11:16;;;;;;;1.57;1.47;;;;;3.20;97155.00;;;;5072971;28;20196;-61
2023/12/15 03:13:43;;;;;;;1.37;1.30;;;;;3.20;97154.00;;;;5073019;28;20237;-61
2023/12/15 03:16:12;;;;;;;1.27;1.20;;;;;3.20;97154.00;;;;5073193;28;20215;-62
2023/12/15 03:18:40;;;;;;;9.20;1.57;;;;;3.20;97160.00;;;;5073003;28;20261;-62
2023/12/15 03:21:08;;;;;;;1.00;1.00;;;;;3.20;97164.00;;;;5072999;28;20203;-62
2023/12/15 03:23:35;;;;;;;1.90;1.80;;;;;3.10;97154.00;;;;5073239;28;20218;-62
2023/12/15 03:26:03;;;;;;;1.63;1.30;;;;;3.10;97162.00;;;;5072924;28;20207;-62
2023/12/15 03:28:30;;;;;;;1.60;1.50;;;;;3.10;97162.00;;;;5073201;28;20310;-62
2023/12/15 03:30:58;;;;;;;1.47;1.43;;;;;3.00;97158.00;;;;5071896;28;20195;-62
2023/12/15 03:33:27;;;;;;;1.37;1.37;;;;;2.90;97167.00;;;;5072824;28;20272;-62
2023/12/15 03:35:54;;;;;;;1.17;1.07;;;;;2.80;97167.00;;;;5072995;28;20221;-62
2023/12/15 03:38:22;;;;;;;1.87;1.63;;;;;2.80;97169.00;;;;5073183;28;20242;-62
2023/12/15 03:40:49;;;;;;;1.80;1.70;;;;;2.80;97169.00;;;;5073198;28;20272;-62
2023/12/15 03:43:17;;;;;;;1.70;1.07;;;;;2.90;97174.00;;;;5072666;28;20215;-62
2023/12/15 03:45:44;;;;;;;1.00;1.00;;;;;3.00;97175.00;;;;5076927;28;20195;-62
2023/12/15 03:48:12;;;;;;;0.70;0.70;;;;;3.00;97178.00;;;;5076552;28;20676;-62
2023/12/15 03:50:40;;;;;;;1.00;1.00;;;;;3.10;97188.00;;;;5076454;28;20237;-62
2023/12/15 03:53:08;;;;;;;1.63;1.53;;;;;3.20;97196.00;;;;5076750;28;20304;-62
2023/12/15 03:55:35;;;;;;;1.53;1.50;;;;;3.20;97191.00;;;;5076755;28;20245;-62
2023/12/15 03:58:03;;;;;;;1.30;1.30;;;;;3.30;97192.00;;;;5076461;28;20671;-62
2023/12/15 04:00:30;;;;;;;1.47;1.37;;;;;3.30;97192.00;;;;5076504;28;20195;-62
2023/12/15 04:02:58;;;;;;;1.23;1.13;;;;;3.40;97190.00;;;;5076364;28;20211;-62
2023/12/15 04:05:25;;;;;;;1.47;1.37;;;;;3.40;97193.00;;;;5076341;28;20237;-62
2023/12/15 04:07:54;;;;;;;1.43;1.27;;;;;3.40;97198.00;;;;5076343;28;20188;-62
2023/12/15 04:10:21;;;;;;;2.53;1.97;;;;;3.40;97191.00;;;;5076141;28;20570;-62
2023/12/15 04:12:48;;;;;;;2.00;1.57;;;;;3.40;97187.00;;;;5075942;28;20559;-62
2023/12/15 04:15:18;;;;;;;2.50;2.30;;;;;3.50;97202.00;;;;5075998;28;20203;-62
2023/12/15 04:17:45;;;;;;;0.80;0.80;;;;;3.50;97207.00;;;;5075976;28;20207;-62
2023/12/15 04:20:13;;;;;;;1.10;1.00;;;;;3.50;97207.00;;;;5075853;28;20555;-62
2023/12/15 04:22:41;;;;;;;1.10;1.10;;;;;3.50;97222.00;;;;5075877;28;20219;-62
2023/12/15 04:25:10;;;;;;;1.50;1.30;;;;;3.50;97209.00;;;;5075920;28;20592;-62
2023/12/15 04:27:37;;;;;;;0.87;0.87;;;;;3.40;97215.00;;;;5075882;28;20214;-62
2023/12/15 04:30:05;;;;;;;1.57;1.47;;;;;3.40;97208.00;;;;5075584;28;20257;-62
2023/12/15 04:32:33;;;;;;;0.80;0.80;;;;;3.30;97225.00;;;;5075540;28;20722;-62
2023/12/15 04:35:00;;;;;;;1.60;1.07;;;;;3.30;97227.00;;;;5075641;28;20195;-62
2023/12/15 04:37:28;;;;;;;1.57;1.53;;;;;3.30;97232.00;;;;5075595;28;20194;-62
2023/12/15 04:39:55;;;;;;;2.10;2.00;;;;;3.30;97227.00;;;;5075518;28;20596;-66
2023/12/15 04:42:24;;;;;;;1.57;1.43;;;;;3.40;97233.00;;;;5075360;28;20219;-66
2023/12/15 04:44:52;;;;;;;2.47;1.80;;;;;3.40;97233.00;;;;5075794;28;20183;-66
2023/12/15 04:47:19;;;;;;;1.07;1.07;;;;;3.20;97239.00;;;;5075288;28;20667;-65
2023/12/15 04:49:47;;;;;;;1.53;1.43;;;;;3.20;97237.00;;;;5075785;28;20216;-63
2023/12/15 04:52:14;;;;;;;0.77;0.77;;;;;3.30;97242.00;;;;5075215;28;20579;-63
2023/12/15 04:54:42;;;;;;;10.03;2.60;;;;;3.30;97245.00;;;;5075048;28;20199;-62
2023/12/15 04:57:09;;;;;;;1.50;1.40;;;;;3.30;97255.00;;;;5075246;28;20191;-63
2023/12/15 04:59:39;;;;;;;1.03;1.03;;;;;3.40;97267.00;;;;5075206;28;20674;-63
2023/12/15 05:02:07;;;;;;;1.00;1.00;;;;;3.30;97269.00;;;;5074850;28;20215;-62
2023/12/15 05:04:35;;;;;;;1.47;1.37;;;;;3.30;97270.00;;;;5074897;28;20231;-63
2023/12/15 05:07:03;;;;;;;1.67;1.37;;;;;3.20;97269.00;;;;5074909;28;20217;-63
2023/12/15 05:09:30;;;;;;;1.27;1.27;;;;;3.20;97265.00;;;;5074866;28;20212;-64
2023/12/15 05:11:58;;;;;;;1.23;1.13;;;;;3.30;97272.00;;;;5075021;28;20222;-62
2023/12/15 05:14:25;;;;;;;2.53;2.20;;;;;3.30;97274.00;;;;5075018;28;20257;-62
2023/12/15 05:16:54;;;;;;;2.57;1.67;;;;;3.30;97276.00;;;;5074551;28;20549;-62
2023/12/15 05:19:20;;;;;;;1.43;1.33;;;;;3.30;97280.00;;;;5074516;28;20547;-62
2023/12/15 05:21:48;;;;;;;1.23;1.13;;;;;3.30;97281.00;;;;5074639;28;20676;-62
2023/12/15 05:24:16;;;;;;;1.63;1.50;;;;;3.20;97277.00;;;;5074615;28;20206;-62
2023/12/15 05:26:43;;;;;;;2.03;1.93;;;;;3.10;97283.00;;;;5075071;28;20191;-62
2023/12/15 05:29:11;;;;;;;3.50;1.63;;;;;3.10;97292.00;;;;5074278;28;20302;-62
2023/12/15 05:31:39;;;;;;;1.50;1.40;;;;;3.20;97298.00;;;;5074258;28;20251;-62
2023/12/15 05:34:07;;;;;;;1.23;1.20;;;;;3.20;97300.00;;;;5074344;28;20192;-62
2023/12/15 05:36:35;;;;;;;1.23;1.17;;;;;3.20;97302.00;;;;5074379;28;20266;-62
2023/12/15 05:39:02;;;;;;;1.30;1.20;;;;;3.30;97314.00;;;;5074429;28;20542;-62
2023/12/15 05:41:30;;;;;;;1.10;1.10;;;;;3.30;97321.00;;;;5074066;28;20198;-62
2023/12/15 05:43:57;;;;;;;2.27;2.07;;;;;3.30;97330.00;;;;5074244;28;20253;-62
2023/12/15 05:46:25;;;;;;;1.17;1.10;;;;;3.30;97336.00;;;;5073007;28;20210;-62
2023/12/15 05:48:52;;;;;;;0.90;0.90;;;;;3.30;97342.00;;;;5073990;28;20580;-62
2023/12/15 05:51:21;;;;;;;1.50;1.40;;;;;3.40;97348.00;;;;5073866;28;20191;-62
2023/12/15 05:53:48;;;;;;;2.10;1.90;;;;;3.20;97341.00;;;;5074026;28;20198;-62
2023/12/15 05:56:16;;;;;;;1.10;1.10;;;;;3.20;97344.00;;;;5073959;28;20189;-63
2023/12/15 05:58:43;;;;;;;0.97;0.97;;;;;3.10;97343.00;;;;5074182;28;20516;-62
2023/12/15 06:01:11;;;;;;;1.83;1.73;;;;;3.10;97352.00;;;;5074207;28;20590;-62
2023/12/15 06:03:39;;;;;;;1.80;1.57;;;;;3.00;97350.00;;;;5074342;28;20191;-62
2023/12/15 06:06:08;;;;;;;2.40;1.67;;;;;2.80;97359.00;;;;5073958;28;20207;-60
2023/12/15 06:08:37;;;;;;;1.00;1.00;;;;;2.80;97360.00;;;;5074293;28;20195;-60
2023/12/15 06:11:05;;;;;;;1.20;1.20;;;;;2.90;97371.00;;;;5073696;28;20305;-60
2023/12/15 06:13:32;;;;;;;1.43;1.33;;;;;2.90;97378.00;;;;5072218;28;20224;-60
2023/12/15 06:15:59;;;;;;;1.47;1.43;;;;;3.00;97377.00;;;;5073455;28;20192;-60
2023/12/15 06:18:27;;;;;;;3.07;1.20;;;;;3.10;97383.00;;;;5073507;28;20677;-60
2023/12/15 06:20:54;;;;;;;1.40;1.40;;;;;3.00;97386.00;;;;5073410;28;20191;-60
2023/12/15 06:23:22;;;;;;;1.50;1.40;;;;;3.10;97386.00;;;;5073324;28;20222;-60
2023/12/15 06:25:50;;;;;;;4.20;1.63;;;;;3.20;97396.00;;;;5073373;28;20221;-60
2023/12/15 06:28:18;;;;;;;1.27;1.20;;;;;3.20;97394.00;;;;5074251;28;20198;-62
2023/12/15 06:30:45;;;;;;;0.93;0.93;;;;;3.20;97395.00;;;;5073239;28;20219;-62
2023/12/15 06:33:13;;;;;;;2.23;2.13;;;;;3.30;97399.00;;;;5073506;28;20211;-62
2023/12/15 06:35:40;;;;;;;1.60;1.50;;;;;3.40;97397.00;;;;5073719;28;20192;-62
2023/12/15 06:38:07;;;;;;;1.60;1.50;;;;;3.40;97400.00;;;;5072038;28;20215;-62
2023/12/15 06:40:35;;;;;;;2.23;2.03;;;;;3.40;97406.00;;;;5073192;28;20694;-62
2023/12/15 06:43:04;;;;;;;1.43;1.43;;;;;3.40;97415.00;;;;5073490;28;20211;-62
2023/12/15 06:45:31;;;;;;;4.67;2.30;;;;;3.40;97408.00;;;;5073469;28;20679;-61
2023/12/15 06:47:58;;;;;;;1.83;1.73;;;;;3.50;97415.00;;;;5073032;28;20274;-62
2023/12/15 06:50:26;;;;;;;1.00;1.00;;;;;3.30;97412.00;;;;5071832;28;20219;-62
2023/12/15 06:52:53;;;;;;;1.40;1.40;;;;;3.20;97414.00;;;;5073066;28;20207;-62
2023/12/15 06:55:21;;;;;;;1.90;1.37;;;;;3.20;97421.00;;;;5072940;28;20192;-62
2023/12/15 06:57:48;;;;;;;1.00;1.00;;;;;3.30;97426.00;;;;5073383;28;20191;-62
2023/12/15 07:00:17;;;;;;;1.40;1.30;;;;;3.40;97429.00;;;;5073216;28;20575;-62
2023/12/15 07:02:45;;;;;;;1.03;1.03;;;;;3.40;97431.00;;;;5072786;28;20207;-62
2023/12/15 07:05:12;;;;;;;1.67;1.37;;;;;3.30;97436.00;;;;5072907;28;20199;-61
2023/12/15 07:07:39;;;;;;;0.80;0.80;;;;;3.50;97435.00;;;;5072878;28;20200;-61
2023/12/15 07:10:08;;;;;;;1.53;1.43;;;;;3.50;97441.00;;;;5073077;28;20217;-61
2023/12/15 07:12:36;;;;;;;2.23;1.87;;;;;3.30;97445.00;;;;5072812;28;20216;-61
2023/12/15 07:15:03;;;;;;;1.97;1.80;;;;;3.20;97446.00;;;;5073212;28;20733;-61
2023/12/15 07:17:32;;;;;;;1.60;1.50;;;;;3.10;97448.00;;;;5072821;28;20199;-61
2023/12/15 07:19:58;;;;;;;1.47;1.37;;;;;3.20;97454.00;;;;5074355;28;20194;-61
2023/12/15 07:22:26;;;;;;;2.40;1.67;;;;;3.20;97454.00;;;;5076969;28;20729;-62
2023/12/15 07:24:53;;;;;;;1.40;1.30;;;;;3.30;97453.00;;;;5076804;28;20190;-62
2023/12/15 07:27:21;;;;;;;1.63;1.53;;;;;3.20;97456.00;;;;5075509;28;20195;-62
2023/12/15 07:29:48;;;;;;;1.40;1.40;;;;;3.10;97456.00;;;;5076674;28;20238;-62
2023/12/15 07:32:15;;;;;;;2.13;1.60;;;;;3.10;97462.00;;;;5076658;28;20264;-62
2023/12/15 07:34:44;;;;;;;1.57;1.53;;;;;3.20;97468.00;;;;5076789;28;20199;-62
2023/12/15 07:37:12;;;;;;;1.07;1.07;;;;;3.40;97477.00;;;;5076622;28;20242;-62
2023/12/15 07:39:40;;;;;;;1.70;1.60;;;;;3.50;97467.00;;;;5077103;28;20199;-62
2023/12/15 07:42:08;;;;;;;1.07;1.07;;;;;3.50;97476.00;;;;5076750;28;20577;-62
2023/12/15 07:44:35;;;;;;;1.87;1.77;;;;;3.50;97472.00;;;;5076530;28;20200;-62
2023/12/15 07:47:03;;;;;;;3.50;2.17;;;;;3.50;97486.00;;;;5076535;28;20195;-62
2023/12/15 07:49:34;;;;;;;1.77;1.63;;;;;3.60;97479.00;;;;5076339;28;20241;-62
2023/12/15 07:52:03;;;;;;;1.97;1.77;;;;;3.60;97495.00;;;;5076747;28;20211;-62
2023/12/15 07:54:31;;;;;;;3.17;2.27;;;;;3.50;97483.00;;;;5076286;28;20191;-62
2023/12/15 07:56:59;;;;;;;0.90;0.90;;;;;3.50;97495.00;;;;5076446;28;20191;-62
2023/12/15 07:59:26;;;;;;;1.10;1.00;;;;;3.40;97489.00;;;;5076101;28;20202;-62
2023/12/15 08:01:55;;;;;;;3.47;3.17;;;;;3.40;97499.00;;;;5076050;28;20215;-61
2023/12/15 08:04:22;;;;;;;1.37;1.30;;;;;3.30;97509.00;;;;5076292;28;20192;-61
2023/12/15 08:06:50;;;;;;;3.60;2.17;;;;;3.40;97512.00;;;;5076135;28;20197;-62
2023/12/15 08:09:18;;;;;;;1.00;1.00;;;;;3.50;97501.00;;;;5076620;28;20195;-62
2023/12/15 08:11:46;;;;;;;2.07;1.93;;;;;3.50;97513.00;;;;5075022;28;20231;-62
2023/12/15 08:14:13;;;;;;;1.60;1.50;;;;;3.60;97519.00;;;;5076608;28;20195;-60
2023/12/15 08:16:41;;;;;;;1.60;1.50;;;;;3.60;97525.00;;;;5074540;28;20192;-61
2023/12/15 08:19:08;;;;;;;1.47;1.37;;;;;3.70;97526.00;;;;5074490;28;20271;-62
2023/12/15 08:21:36;;;;;;;2.57;2.37;;;;;3.80;97531.00;;;;5076063;28;20207;-62
2023/12/15 08:24:04;;;;;;;1.90;1.80;;;;;3.90;97518.00;;;;5076809;28;20184;-62
2023/12/15 08:26:33;;;;;;;5.10;2.10;;;;;3.90;97527.00;;;;5076220;28;20278;-62
2023/12/15 08:29:01;;;;;;;1.53;1.43;;;;;4.10;97533.00;;;;5075670;28;20199;-62
2023/12/15 08:31:28;;;;;;;1.87;1.77;;;;;4.10;97522.00;;;;5075158;28;20220;-62
2023/12/15 08:33:55;;;;;;;1.60;1.57;;;;;3.90;97527.00;;;;5075660;28;20195;-62
2023/12/15 08:36:23;;;;;;;2.70;2.20;;;;;3.80;97527.00;;;;5076175;28;20659;-62
2023/12/15 08:38:51;;;;;;;1.73;1.60;;;;;4.10;97543.00;;;;5075517;28;20728;-62
2023/12/15 08:41:19;;;;;;;3.27;1.47;;;;;4.30;97544.00;;;;5075489;28;20194;-62
2023/12/15 08:43:48;;;;;;;1.83;1.73;;;;;4.20;97557.00;;;;5075462;28;20191;-62
2023/12/15 08:46:15;;;;;;;2.07;1.97;;;;;4.40;97556.00;;;;5075835;28;20240;-61
2023/12/15 08:48:43;;;;;;;1.93;1.77;;;;;4.20;97555.00;;;;5075561;28;20195;-62
2023/12/15 08:51:10;;;;;;;3.13;1.53;;;;;4.20;97555.00;;;;5075221;28;20555;-62
2023/12/15 08:53:37;;;;;;;2.63;1.83;;;;;3.90;97550.00;;;;5075559;28;20716;-62
2023/12/15 08:56:08;;;;;;;1.33;1.33;;;;;3.90;97551.00;;;;5075236;28;20189;-62
2023/12/15 08:58:35;;;;;;;2.40;2.20;;;;;3.70;97557.00;;;;5075185;28;20684;-62
2023/12/15 09:01:04;;;;;;;2.07;1.97;;;;;3.60;97560.00;;;;5074956;28;20655;-61
2023/12/15 09:03:32;;;;;;;1.90;1.80;;;;;3.90;97577.00;;;;5074923;28;20347;-61
2023/12/15 09:05:59;;;;;;;2.53;2.33;;;;;3.60;97569.00;;;;5074870;28;20202;-62
2023/12/15 09:08:27;;;;;;;2.63;1.77;;;;;3.50;97574.00;;;;5074847;28;20206;-62
2023/12/15 09:10:54;;;;;;;1.53;1.47;;;;;3.70;97578.00;;;;5075331;28;20224;-62
2023/12/15 09:13:22;;;;;;;1.67;1.63;;;;;3.70;97579.00;;;;5074874;28;20215;-62
2023/12/15 09:15:50;;;;;;;1.80;1.70;;;;;3.60;97580.00;;;;5074958;28;20282;-61
2023/12/15 09:18:18;;;;;;;2.30;2.13;;;;;3.80;97573.00;;;;5075000;28;20249;-61
2023/12/15 09:20:46;;;;;;;2.33;2.23;;;;;3.90;97579.00;;;;5074957;28;20189;-62
2023/12/15 09:23:13;;;;;;;2.47;2.23;;;;;4.00;97586.00;;;;5074623;28;20243;-62
2023/12/15 09:25:41;;;;;;;2.77;2.07;;;;;4.00;97585.00;;;;5074572;28;20210;-62
2023/12/15 09:28:10;;;;;;;1.87;1.77;;;;;4.00;97593.00;;;;5075020;28;20205;-62
2023/12/15 09:30:38;;;;;;;1.73;1.63;;;;;4.00;97585.00;;;;5074650;28;20219;-61
2023/12/15 09:33:05;;;;;;;2.13;2.03;;;;;4.00;97609.00;;;;5074480;28;20721;-61
2023/12/15 09:35:34;;;;;;;1.23;1.23;;;;;4.20;97610.00;;;;5074318;28;20187;-61
2023/12/15 09:38:03;;;;;;;5.77;2.13;;;;;3.90;97604.00;;;;5074273;28;20194;-61
2023/12/15 09:40:32;;;;;;;1.17;1.10;;;;;4.00;97607.00;;;;5074150;28;20270;-61
2023/12/15 09:43:00;;;;;;;3.10;1.90;;;;;4.00;97610.00;;;;5073200;28;20215;-61
2023/12/15 09:45:29;;;;;;;3.37;2.90;;;;;3.90;97599.00;;;;5074138;28;20588;-61
2023/12/15 09:47:57;;;;;;;3.83;1.80;;;;;3.80;97595.00;;;;5074262;28;20191;-61
2023/12/15 09:50:32;;;;;;;4.70;3.20;;;;;3.70;97602.00;;;;5073956;28;20269;-62
2023/12/15 09:53:04;;;;;;;2.23;2.07;;;;;3.80;97603.00;;;;5073965;28;20269;-61
2023/12/15 09:55:32;;;;;;;1.93;1.80;;;;;3.70;97606.00;;;;5074426;28;20559;-61
2023/12/15 09:58:01;;;;;;;2.03;1.93;;;;;3.80;97620.00;;;;5073858;28;20195;-61
2023/12/15 10:00:29;;;;;;;1.70;1.60;;;;;4.10;97610.00;;;;5073766;28;20550;-61
2023/12/15 10:02:58;;;;;;;4.13;2.07;;;;;4.00;97618.00;;;;5074215;28;20230;-61
2023/12/15 10:05:27;;;;;;;2.40;2.27;;;;;4.10;97621.00;;;;5073716;28;20198;-61
2023/12/15 10:07:54;;;;;;;2.40;2.27;;;;;4.00;97616.00;;;;5073726;28;20191;-61
2023/12/15 10:10:26;;;;;;;2.43;2.23;;;;;4.20;97625.00;;;;5073539;28;20282;-61
2023/12/15 10:12:57;;;;;;;1.73;1.63;;;;;4.10;97627.00;;;;5073650;28;20555;-61
2023/12/15 10:15:25;;;;;;;1.73;1.63;;;;;4.40;97628.00;;;;5074351;28;20181;-61
2023/12/15 10:17:53;;;;;;;1.40;1.30;;;;;4.40;97625.00;;;;5073916;28;20635;-61
2023/12/15 10:20:21;;;;;;;1.63;1.53;;;;;4.50;97632.00;;;;5073536;28;20202;-61
2023/12/15 10:22:49;;;;;;;1.70;1.60;;;;;4.40;97638.00;;;;5073435;28;20209;-61
2023/12/15 10:25:17;;;;;;;1.50;1.33;;;;;4.40;97642.00;;;;5073661;28;20191;-61
2023/12/15 10:27:47;;;;;;;2.37;1.23;;;;;4.40;97633.00;;;;5072190;28;20202;-61
2023/12/15 10:30:15;;;;;;;2.50;2.30;;;;;4.60;97629.00;;;;5073469;28;20222;-61
2023/12/15 10:32:43;;;;;;;1.33;1.27;;;;;4.70;97642.00;;;;5073475;28;20241;-61
2023/12/15 10:35:12;;;;;;;2.40;2.20;;;;;4.70;97644.00;;;;5073403;28;20191;-61
2023/12/15 10:37:41;;;;;;;1.83;1.73;;;;;4.90;97631.00;;;;5073162;28;20187;-61
2023/12/15 10:40:09;;;;;;;1.20;1.20;;;;;5.10;97640.00;;;;5073666;28;20326;-61
2023/12/15 10:42:38;;;;;;;1.67;1.57;;;;;5.40;97638.00;;;;5073281;28;20237;-61
2023/12/15 10:45:08;;;;;;;3.40;2.33;;;;;5.30;97645.00;;;;5073183;28;20187;-61
2023/12/15 10:47:36;;;;;;;2.13;1.70;;;;;5.20;97642.00;;;;5073374;28;20176;-61
2023/12/15 10:50:07;;;;;;;1.93;1.83;;;;;5.30;97646.00;;;;5073268;28;20196;-61
2023/12/15 10:52:37;;;;;;;1.57;1.47;;;;;5.00;97648.00;;;;5072784;28;20242;-61
2023/12/15 10:55:06;;;;;;;3.97;1.63;;;;;5.00;97652.00;;;;5073333;28;20212;-61
2023/12/15 10:57:34;;;;;;;1.27;1.23;;;;;5.10;97649.00;;;;5073507;28;20195;-61
2023/12/15 11:00:04;;;;;;;2.03;1.93;;;;;5.40;97640.00;;;;5073018;28;20195;-61
2023/12/15 11:02:37;;;;;;;1.87;1.77;;;;;4.90;97635.00;;;;5073201;28;20254;-61
2023/12/15 11:05:09;;;;;;;1.93;1.83;;;;;4.90;97628.00;;;;5073125;28;20176;-61
2023/12/15 11:07:36;;;;;;;1.17;1.17;;;;;4.90;97642.00;;;;5072956;28;20248;-61
2023/12/15 11:10:05;;;;;;;2.90;2.60;;;;;5.20;97635.00;;;;5073268;28;20215;-61
2023/12/15 11:12:36;;;;;;;2.60;2.23;;;;;5.30;97632.00;;;;5072836;28;20222;-61
2023/12/15 11:15:06;;;;;;;1.17;1.17;;;;;5.50;97638.00;;;;5073274;28;20734;-61
2023/12/15 11:17:39;;;;;;;4.40;2.60;;;;;5.60;97642.00;;;;5073194;28;20206;-61
2023/12/15 11:20:11;;;;;;;2.40;1.63;;;;;5.70;97641.00;;;;5072901;28;20635;-61
2023/12/15 11:22:49;;;;;;;2.20;1.73;;;;;5.40;97647.00;;;;5072956;28;20204;-61
2023/12/15 11:25:18;;;;;;;3.43;2.17;;;;;5.60;97644.00;;;;5073209;28;20570;-61
2023/12/15 11:28:02;;;;;;;1.83;1.60;;;;;6.50;97637.00;;;;5072809;28;20187;-61
2023/12/15 11:30:31;;;;;;;1.80;1.70;;;;;6.30;97652.00;;;;5073447;28;20198;-61
2023/12/15 11:33:00;;;;;;;2.00;1.77;;;;;6.10;97652.00;;;;5072753;28;20222;-61
2023/12/15 11:35:33;;;;;;;0.70;0.70;;;;;6.80;97661.00;;;;5073400;28;20195;-61
2023/12/15 11:38:01;;;;;;;1.40;1.30;;;;;6.50;97653.00;;;;5073380;28;20191;-61
2023/12/15 11:40:29;;;;;;;1.27;1.23;;;;;6.30;97650.00;;;;5072997;28;20195;-61
2023/12/15 11:42:57;;;;;;;1.50;1.40;;;;;6.40;97647.00;;;;5072717;28;20296;-61
2023/12/15 11:45:26;;;;;;;1.30;1.30;;;;;7.10;97653.00;;;;5073620;28;20192;-61
2023/12/15 11:47:54;;;;;;;0.80;0.80;;;;;7.70;97662.00;;;;5073773;28;20528;-61
2023/12/15 11:50:23;;;;;;;1.27;1.17;;;;;7.00;97646.00;;;;5073626;28;20296;-61
2023/12/15 11:52:51;;;;;;;0.77;0.77;;;;;7.00;97652.00;;;;5072719;28;20589;-61
2023/12/15 11:55:19;;;;;;;1.00;1.00;;;;;7.00;97646.00;;;;5072719;28;20203;-61
2023/12/15 11:57:47;;;;;;;1.00;1.00;;;;;6.60;97636.00;;;;5072686;28;20196;-61
2023/12/15 12:00:17;;;;;;;0.90;0.90;;;;;7.00;97643.00;;;;5072458;28;20197;-61
2023/12/15 12:02:46;;;;;;;0.73;0.73;;;;;8.00;97652.00;;;;5072272;28;20204;-61
2023/12/15 12:05:14;;;;;;;0.90;0.90;;;;;7.50;97661.00;;;;5073723;28;20301;-61
2023/12/15 12:07:43;;;;;;;1.23;1.20;;;;;7.30;97663.00;;;;5075868;28;20689;-61
2023/12/15 12:10:11;;;;;;;0.70;0.70;;;;;7.60;97653.00;;;;5075945;28;20195;-61
2023/12/15 12:12:38;;;;;;;1.77;1.67;;;;;7.80;97659.00;;;;5076340;28;20234;-61
2023/12/15 12:15:07;;;;;;;0.97;0.97;;;;;8.00;97647.00;;;;5076368;28;20587;-61
2023/12/15 12:17:35;;;;;;;1.20;1.20;;;;;7.50;97653.00;;;;5076020;28;20229;-61
2023/12/15 12:20:06;;;;;;;0.67;0.67;;;;;8.00;97649.00;;;;5076433;28;20202;-61
2023/12/15 12:22:34;;;;;;;2.13;1.43;;;;;8.40;97662.00;;;;5076485;28;20227;-61
2023/12/15 12:25:04;;;;;;;0.80;0.80;;;;;7.70;97666.00;;;;5075886;28;20187;-61
2023/12/15 12:27:32;;;;;;;0.70;0.70;;;;;6.90;97664.00;;;;5075718;28;20278;-61
2023/12/15 12:30:00;;;;;;;0.73;0.73;;;;;6.80;97658.00;;;;5075648;28;20245;-61